Home > Products > Valid Products > TAF

000
FTUS44 KMEG 301400 AAB
TAFMEM
TAF AMD
KMEM 301454Z 3015/3112 21005KT P6SM FEW250
     FM310800 31007KT P6SM SKC=



000
FTUS44 KMEG 301100 AAA
TAFMEM
TAF AMD
KMEM 301132Z 3012/3112 21004KT P6SM FEW250
     FM310800 31007KT P6SM SKC=



000
FTUS44 KMEG 301100
TAFMKL
TAF
KMKL 301127Z 3012/3112 00000KT P6SM SKC
      TEMPO 3012/3013 2SM BCFG FEW002
     FM301400 VRB03KT P6SM FEW250=



000
FTUS44 KMEG 301100
TAFJBR
TAF
KJBR 301127Z 3012/3112 23004KT P6SM FEW250
     FM310700 34008KT P6SM SKC=



000
FTUS44 KMEG 301100
TAFTUP
TAF
KTUP 301127Z 3012/3112 02004KT P6SM SKC
      TEMPO 3012/3013 3SM BR
     FM310000 00000KT P6SM SKC=



000
FTUS44 KMEG 301100
TAFMEM
TAF
KMEM 301127Z 3012/3112 VRB02KT P6SM SKC
     FM301800 21004KT P6SM FEW250=



000
FTUS44 KMEG 300900 AAA
TAFMKL
TAF AMD
KMKL 300908Z 3009/3106 00000KT P6SM SKC
      TEMPO 3010/3013 1SM BCFG FEW002
     FM301400 VRB03KT P6SM SKC=



000
FTUS44 KMEG 300900 AAA
TAFMEM
TAF AMD
KMEM 300901Z 3009/3106 VRB02KT P6SM SKC
     FM301800 21005KT P6SM FEW250=



000
FTUS44 KMEG 300500
TAFJBR
TAF
KJBR 300534Z 3006/3106 00000KT P6SM SKC
     FM301400 13004KT P6SM FEW120
     FM301800 23008KT P6SM FEW250=



000
FTUS44 KMEG 300500
TAFMEM
TAF
KMEM 300534Z 3006/3106 00000KT P6SM SKC
     FM300900 10003KT P6SM SKC
     FM301800 20006KT P6SM SCT250=



000
FTUS44 KMEG 300500
TAFMKL
TAF
KMKL 300534Z 3006/3106 00000KT P6SM SKC
     FM300800 00000KT 4SM BR SKC
      TEMPO 3009/3012 1SM BR FEW002
     FM301400 10004KT P6SM SKC
     FM301800 25003KT P6SM SKC=



000
FTUS44 KMEG 300500
TAFTUP
TAF
KTUP 300534Z 3006/3106 00000KT P6SM SKC
      TEMPO 3008/3012 3SM BR
     FM302100 01005KT P6SM SKC=



000
FTUS44 KMEG 300300 AAA
TAFMEM
TAF AMD
KMEM 300302Z 3003/3024 00000KT P6SM SKC
     FM300900 10003KT P6SM SKC
     FM301800 20006KT P6SM SCT250=



000
FTUS44 KMEG 292300
TAFTUP
TAF
KTUP 292320Z 3000/3024 36004KT P6SM SKC
      TEMPO 3009/3012 3SM BR=



000
FTUS44 KMEG 292300
TAFMEM
TAF
KMEM 292320Z 3000/3024 33006KT P6SM FEW040
     FM300900 10003KT P6SM SKC
     FM301800 20006KT P6SM SCT250=



000
FTUS44 KMEG 292300
TAFMKL
TAF
KMKL 292320Z 3000/3024 33005KT P6SM SKC
     FM300800 00000KT 4SM BR SKC
      TEMPO 3009/3012 1SM BR FEW002
     FM301400 10004KT P6SM SKC
     FM301800 25003KT P6SM SKC=



000
FTUS44 KMEG 292300
TAFJBR
TAF
KJBR 292320Z 3000/3024 00000KT P6SM SKC
      TEMPO 3009/3012 5SM BR
     FM301400 13004KT P6SM FEW120
     FM301800 20008KT P6SM FEW250=



000
FTUS44 KMEG 292000 AAA
TAFMEM
TAF AMD
KMEM 292051Z 2921/3018 33006KT P6SM FEW040
     FM300000 01003KT P6SM SKC
     FM301400 10006KT P6SM SKC=



000
FTUS44 KMEG 291700
TAFJBR
TAF
KJBR 291720Z 2918/3018 33007KT P6SM SKC
     FM300000 VRB03KT P6SM SKC
      TEMPO 3009/3012 5SM BR
     FM301400 13008KT P6SM FEW120=



000
FTUS44 KMEG 291700
TAFMKL
TAF
KMKL 291720Z 2918/3018 35007KT P6SM FEW070
     FM300000 VRB03KT P6SM SKC
     FM300800 00000KT 4SM BR SKC
      TEMPO 3009/3012 1SM BR FEW002
     FM301400 10004KT P6SM SKC=



000
FTUS44 KMEG 291700
TAFTUP
TAF
KTUP 291720Z 2918/3018 04009KT P6SM FEW250
     FM300000 VRB02KT P6SM SKC
      TEMPO 3009/3012 3SM BR=



000
FTUS44 KMEG 291700
TAFMEM
TAF
KMEM 291720Z 2918/3018 01007KT P6SM FEW070
     FM300000 01003KT P6SM SKC
     FM301400 10006KT P6SM SKC=



000
FTUS44 KMEG 291500 CCA
TAFMEM
TAF COR
KMEM 291504Z 2915/3012 03007KT P6SM FEW070
     FM300000 01003KT P6SM SKC=



000
FTUS44 KMEG 291400 AAA
TAFMEM
TAF AMD
KMEM 291459Z 2915/3012 03007KT P6SM FEW070
     FM300000 01001KT P6SM SKC=



000
FTUS44 KMEG 291300 AAA
TAFMKL
TAF AMD
KMKL 291309Z 2913/3012 00000KT 1/4SM FG VV001
     FM291400 01004KT 3SM BR FEW002
     FM291430 01007KT P6SM SKC
     FM300000 00000KT P6SM SKC
      TEMPO 3008/3012 1SM BR=



000
FTUS44 KMEG 291200 CCA
TAFJBR
TAF COR
KJBR 291244Z 2913/3012 00000KT P6SM SKC
      TEMPO 2913/2914 1/2SM BCFG BKN002
     FM291400 36007KT P6SM SKC
     FM300000 00000KT P6SM SKC
      TEMPO 3008/3012 2SM BR=



000
FTUS44 KMEG 291200 AAA
TAFJBR
TAF AMD
KJBR 291242Z 2913/3012 00000KT P6SM SKC
     FM291400 36007KT P6SM SKC
     FM300000 00000KT P6SM SKC
      TEMPO 3008/3012 2SM BR=



000
FTUS44 KMEG 291100
TAFMEM
TAF
KMEM 291124Z 2912/3012 03005KT P6SM SKC
      TEMPO 2912/2913 6SM BR
     FM291400 03007KT P6SM SKC
     FM300000 01001KT P6SM SKC=



000
FTUS44 KMEG 291100
TAFTUP
TAF
KTUP 291124Z 2912/3012 03009KT P6SM FEW010 BKN020
     FM291500 04010KT P6SM SKC
     FM300000 00000KT P6SM SKC
      TEMPO 3008/3012 2SM BR=



000
FTUS44 KMEG 291100
TAFJBR
TAF
KJBR 291124Z 2912/3012 00000KT P6SM SKC
      TEMPO 2912/2913 1/2SM BCFG FEW001
     FM291400 36007KT P6SM SKC
     FM300000 00000KT P6SM SKC
      TEMPO 3008/3012 2SM BR=



000
FTUS44 KMEG 291100
TAFMKL
TAF
KMKL 291124Z 2912/3012 00000KT P6SM SKC
      TEMPO 2912/2913 1/2SM BCFG VV002
     FM291400 01007KT P6SM SKC
     FM300000 00000KT P6SM SKC
      TEMPO 3008/3012 1SM BR=



000
FTUS44 KMEG 291000 AAA
TAFMKL
TAF AMD
KMKL 291002Z 2910/3006 00000KT P6SM SKC
      TEMPO 2910/2912 1/2SM BCFG FEW001
     FM291400 01007KT P6SM SKC
     FM300000 00000KT P6SM SKC=



000
FTUS44 KMEG 290900 AAA
TAFJBR
TAF AMD
KJBR 290933Z 2910/3006 00000KT P6SM SKC
      TEMPO 2910/2912 1/4SM BCFG FEW001
     FM291400 36007KT P6SM SKC
     FM300000 00000KT P6SM SKC=



000
FTUS44 KMEG 290900 AAA
TAFMEM
TAF AMD
KMEM 290919Z 2909/3006 03005KT P6SM FEW010 BKN100
     FM291400 03007KT P6SM FEW040
     FM300000 01003KT P6SM SKC=



000
FTUS44 KMEG 290500
TAFMEM
TAF
KMEM 290530Z 2906/3006 07011G18KT P6SM VCSH FEW006 SCT020 OVC045
      TEMPO 2906/2907 6SM -SHRA
     FM290700 03005KT P6SM SCT025 BKN035
     FM291000 03005KT P6SM SCT040 SCT080
     FM291400 03007KT P6SM FEW040
     FM300000 01003KT P6SM SKC=



000
FTUS44 KMEG 290500
TAFMKL
TAF
KMKL 290530Z 2906/3006 04004KT P6SM VCTS SCT020 OVC035CB
      TEMPO 2906/2908 6SM -SHRA BKN020
     FM290800 01004KT P6SM SCT025 BKN040
     FM291000 01004KT P6SM SCT040 SCT080
     FM291400 01007KT P6SM FEW040
     FM300000 35003KT P6SM SKC=



000
FTUS44 KMEG 290500
TAFJBR
TAF
KJBR 290530Z 2906/3006 35003KT P6SM SCT080
      TEMPO 2908/2912 5SM BR
     FM291400 36006KT P6SM SKC
     FM300000 36003KT P6SM SKC=



000
FTUS44 KMEG 290500
TAFTUP
TAF
KTUP 290530Z 2906/3006 36005KT P6SM -SHRA VCTS SCT020 OVC035CB
      TEMPO 2906/2908 6SM SHRA BKN020
     FM290800 01007KT P6SM -SHRA VCTS SCT009 OVC015CB
      TEMPO 2908/2912 5SM SHRA BR BKN009
     FM291200 03007KT P6SM SCT020 BKN035
     FM291500 04009KT P6SM SCT040
     FM300000 02003KT P6SM SKC=



000
FTUS44 KMEG 290400 AAD
TAFMEM
TAF AMD
KMEM 290421Z 2904/2924 03007KT P6SM -SHRA VCTS SCT009 OVC025CB
      TEMPO 2904/2906 6SM -SHRA BKN009
     FM290600 03006KT P6SM VCSH SCT025 BKN035
     FM291000 03006KT P6SM SCT080
     FM291400 02007KT P6SM SCT040=



000
FTUS44 KMEG 290400 AAD
TAFMEM
TAF AMD
KMEM 290421Z 2904/2924 03007KT P6SM -SHRA VCTS SCT009 OVC025CB
      TEMPO 2904/2906 6SM -SHRA BKN009
     FM290600 03006KT P6SM VCSH SCT025 BKN035
     FM291000 03006KT P6SM SCT080
     FM291400 02007KT P6SM SCT040=



000
FTUS44 KMEG 290300 AAC
TAFMEM
TAF AMD
KMEM 290303Z 2903/2924 02007KT P6SM -SHRA VCTS SCT009 OVC025CB
      TEMPO 2903/2906 6SM -RA BKN009
     FM290600 03006KT P6SM VCSH SCT025 BKN035
     FM291000 03006KT P6SM SCT080
     FM291400 02007KT P6SM SCT040=



000
FTUS44 KMEG 290200 AAB
TAFMEM
TAF AMD
KMEM 290216Z 2902/2924 02007KT P6SM -SHRA VCTS SCT009 OVC025CB
      TEMPO 2902/2906 6SM -RA BKN009
     FM290600 03006KT P6SM VCSH SCT025 BKN035
     FM291000 03006KT P6SM SCT080
     FM291400 02007KT P6SM SCT040=



000
FTUS44 KMEG 290100 AAA
TAFMKL
TAF AMD
KMKL 290140Z 2902/2924 03007KT P6SM -SHRA VCTS SCT015 OVC025CB
     FM290400 01004KT P6SM VCSH SCT025 BKN035
     FM291000 01004KT P6SM SCT080
     FM291400 01007KT P6SM SCT040=



000
FTUS44 KMEG 290100 AAA
TAFMKL
TAF AMD
KMKL 290140Z 2902/2924 03007KT P6SM -SHRA VCTS SCT015 OVC025CB
     FM290400 01004KT P6SM VCSH SCT025 BKN035
     FM291000 01004KT P6SM SCT080
     FM291400 01007KT P6SM SCT040=



000
FTUS44 KMEG 282300 AAA
TAFMEM
TAF AMD
KMEM 282328Z 2823/2924 02006KT P6SM -SHRA VCTS SCT012 OVC025CB
      TEMPO 2900/2904 6SM SHRA BKN009
     FM290400 02005KT P6SM VCSH SCT025 BKN035
     FM291000 02005KT P6SM SCT080
     FM291400 02007KT P6SM SCT040=



000
FTUS44 KMEG 282300
TAFJBR
TAF
KJBR 282322Z 2900/2924 04007KT P6SM VCSH SCT025 OVC035
     FM290200 02004KT P6SM SCT035 BKN060
     FM290700 01004KT P6SM SCT080
     FM291400 01006KT P6SM SCT040=



000
FTUS44 KMEG 282300
TAFTUP
TAF
KTUP 282322Z 2900/2924 24005KT P6SM VCTS SCT025CB BKN040
      TEMPO 2900/2902 5SM SHRA BKN025
     FM290200 03004KT P6SM -SHRA VCTS SCT020 OVC035CB
      TEMPO 2902/2906 6SM SHRA BKN020
     FM290800 02007KT 4SM -RA BR BKN009 OVC015
     FM291200 03007KT P6SM SCT020 BKN035
     FM291500 04008KT P6SM SCT040=



000
FTUS44 KMEG 282300
TAFMEM
TAF
KMEM 282322Z 2900/2924 02006KT P6SM -SHRA SCT012 OVC025
      TEMPO 2900/2904 6SM SHRA BKN009
     FM290400 02005KT P6SM VCSH SCT025 BKN035
     FM291000 02005KT P6SM SCT080
     FM291400 02007KT P6SM SCT040=



000
FTUS44 KMEG 282300
TAFMKL
TAF
KMKL 282322Z 2900/2924 36005KT P6SM -SHRA SCT015 OVC025
      TEMPO 2900/2904 6SM SHRA BKN009
     FM290400 01004KT P6SM VCSH SCT025 BKN035
     FM291000 01004KT P6SM SCT080
     FM291400 01007KT P6SM SCT040=



000
FTUS44 KMEG 282000 AAA
TAFMEM
TAF AMD
KMEM 282058Z 2821/2918 24008KT P6SM VCSH SCT015 OVC060
      TEMPO 2821/2824 -SHRA BKN015
     FM290000 02006KT P6SM -SHRA SCT015 OVC025
      TEMPO 2900/2904 6SM SHRA BKN015
     FM290400 02006KT P6SM VCSH SCT025 BKN035
     FM291300 03008KT P6SM SCT040 SCT250=



000
FTUS44 KMEG 281900 AAA
TAFTUP
TAF AMD
KTUP 281905Z 2819/2918 22008KT P6SM VCSH BKN025 BKN060
     FM282100 24008KT P6SM VCTS SCT025CB BKN040
      TEMPO 2821/2901 5SM TSRA BKN025CB
     FM290200 03007KT P6SM -SHRA VCTS SCT015 OVC025CB
      TEMPO 2902/2906 6SM SHRA BKN015
     FM290800 03008KT 4SM -RA BR BKN009 OVC015
     FM291400 05008KT P6SM SCT020 BKN035=



000
FTUS44 KMEG 281700
TAFJBR
TAF
KJBR 281727Z 2818/2918 34010KT P6SM VCSH SCT015 OVC025
      TEMPO 2818/2822 -SHRA OVC015
     FM282300 01007KT P6SM VCSH SCT025 OVC035
     FM290200 02005KT P6SM SCT035 BKN060
     FM290700 01005KT P6SM FEW060 BKN150
     FM291300 04005KT P6SM SCT040 SCT250=



000
FTUS44 KMEG 281700
TAFTUP
TAF
KTUP 281727Z 2818/2918 22008KT P6SM SCT025 BKN060
     FM282200 24008KT P6SM VCTS BKN040CB
      TEMPO 2823/2902 5SM TSRA BKN030CB
     FM290200 03007KT P6SM -SHRA VCTS SCT015 OVC025CB
      TEMPO 2902/2906 6SM SHRA BKN015
     FM290800 03008KT 4SM -RA BR BKN009 OVC015
     FM291400 05008KT P6SM SCT020 BKN035=



000
FTUS44 KMEG 281700
TAFMEM
TAF
KMEM 281727Z 2818/2918 22008KT P6SM -SHRA BKN025 OVC040
     FM282000 32008KT 6SM SHRA BKN015 OVC025
     FM282300 02006KT P6SM -SHRA SCT015 OVC025
      TEMPO 2900/2904 6SM SHRA BKN015
     FM290400 02006KT P6SM VCSH SCT025 BKN035
     FM291300 03008KT P6SM SCT040 SCT250=



000
FTUS44 KMEG 281700
TAFMKL
TAF
KMKL 281727Z 2818/2918 25008KT P6SM VCSH SCT015 BKN025
      TEMPO 2818/2820 -SHRA BKN015
     FM282000 31008KT 6SM SHRA BKN015 OVC025
     FM282300 36005KT P6SM -SHRA SCT015 OVC025
      TEMPO 2900/2904 6SM SHRA BKN015
     FM290400 02005KT P6SM VCSH SCT025 BKN035
     FM291300 02006KT P6SM SCT040 SCT250=



000
FTUS44 KMEG 281500 AAA
TAFJBR
TAF AMD
KJBR 281546Z 2816/2912 34010KT 6SM -RA BR BKN018 OVC035
     FM281700 34010KT P6SM VCSH SCT018 OVC035
      TEMPO 2819/2822 -RA OVC018
     FM282200 01007KT P6SM OVC040
     FM290100 02004KT P6SM BKN080=



000
FTUS44 KMEG 281500 AAA
TAFJBR
TAF AMD
KJBR 281546Z 2816/2912 34010KT 6SM -RA BR BKN018 OVC035
     FM281700 34010KT P6SM VCSH SCT018 OVC035
      TEMPO 2819/2822 -RA OVC018
     FM282200 01007KT P6SM OVC040
     FM290100 02004KT P6SM BKN080=



000
FTUS44 KMEG 281500 AAA
TAFMEM
TAF AMD
KMEM 281501Z 2815/2912 22009KT P6SM VCSH SCT018 OVC060
      TEMPO 2815/2817 -SHRA BKN018
     FM281700 25008KT 5SM SHRA BKN020 OVC030
     FM282000 30008KT P6SM -RA BKN025 OVC040
     FM290000 02006KT P6SM OVC025
     FM290300 02006KT P6SM OVC035
     FM290800 02007KT P6SM BKN060=



000
FTUS44 KMEG 281200 AAA
TAFTUP
TAF AMD
KTUP 281231Z 2813/2912 21008KT P6SM OVC200
      TEMPO 2813/2814 2SM BCFG
     FM281600 22008KT P6SM BKN040
     FM282200 24008KT P6SM VCTS BKN040CB
      TEMPO 2822/2902 5SM -TSRA BKN030CB
     FM290200 32005KT 5SM -RA BR VCTS SCT015 OVC025CB=



000
FTUS44 KMEG 281100
TAFMEM
TAF
KMEM 281129Z 2812/2912 21010KT P6SM SCT040 BKN050
     FM281400 22008KT P6SM VCSH SCT030 BKN050
     FM281700 25008KT P6SM VCTS SCT020 BKN030CB
      TEMPO 2817/2820 5SM -SHRA OVC018
     FM282000 30008KT 5SM -RA BR VCTS BKN020CB
     FM290000 02006KT P6SM OVC025
      TEMPO 2900/2903 -RA
     FM290300 02006KT P6SM OVC035
     FM290800 02007KT P6SM BKN060=



000
FTUS44 KMEG 281100
TAFJBR
TAF
KJBR 281129Z 2812/2912 22010KT P6SM VCTS SCT020CB BKN040CB
      TEMPO 2812/2815 5SM -SHRA OVC020
     FM281500 28007KT 5SM -RA BR OVC020
     FM281800 34007KT P6SM VCSH OVC025
      TEMPO 2819/2822 -RA OVC018
     FM282200 01007KT P6SM OVC040
     FM290100 02004KT P6SM BKN080=



000
FTUS44 KMEG 281100
TAFMKL
TAF
KMKL 281129Z 2812/2912 20008KT P6SM SCT030 BKN050
     FM281400 22008KT P6SM VCSH SCT030 BKN050
     FM281700 25008KT P6SM VCTS SCT020 BKN030CB
      TEMPO 2817/2820 5SM -SHRA OVC018
     FM282000 30008KT 5SM -RA BR VCTS BKN018CB
     FM290100 36005KT P6SM OVC025
      TEMPO 2901/2904 -RA
     FM290400 02005KT P6SM OVC035
     FM290800 02005KT P6SM BKN060=



000
FTUS44 KMEG 281100
TAFTUP
TAF
KTUP 281129Z 2812/2912 21008KT P6SM OVC200
      TEMPO 2812/2816 4SM BR FEW015
     FM281600 22008KT P6SM BKN040
     FM282200 24008KT P6SM VCTS BKN040CB
      TEMPO 2822/2902 5SM -TSRA BKN030CB
     FM290200 32005KT 5SM -RA BR VCTS SCT015 OVC025CB=



000
FTUS44 KMEG 280900 AAA
TAFMEM
TAF AMD
KMEM 280909Z 2809/2906 21010KT P6SM SCT040 BKN050
     FM281400 22008KT P6SM VCSH SCT030 BKN050
     FM281700 24008KT P6SM VCTS SCT020 BKN030CB
      TEMPO 2817/2820 5SM -SHRA BKN020
     FM282000 30008KT 5SM -RA BR VCTS BKN020CB
     FM290000 02006KT P6SM OVC025
      TEMPO 2900/2903 -RA
     FM290300 02006KT P6SM OVC035=



000
FTUS44 KMEG 280500
TAFMKL
TAF
KMKL 280533Z 2806/2906 20008KT P6SM SCT250
     FM281200 20008KT P6SM SCT030 BKN050
     FM281400 22008KT P6SM VCSH SCT030 BKN050
     FM281700 24008KT P6SM VCTS SCT020 BKN030CB
      TEMPO 2817/2820 5SM -SHRA BKN020
     FM282000 30008KT 5SM -RA BR VCTS BKN020CB
     FM290100 36005KT P6SM OVC025
      TEMPO 2901/2904 -RA
     FM290400 02005KT P6SM OVC035=



000
FTUS44 KMEG 280500
TAFJBR
TAF
KJBR 280533Z 2806/2906 21010KT P6SM BKN050
     FM281200 22010KT P6SM VCTS SCT020CB BKN040CB
      TEMPO 2812/2815 5SM -SHRA OVC020
     FM281500 27007KT 5SM -RA BR OVC020
     FM281900 34007KT P6SM OVC025
      TEMPO 2819/2822 -RA
     FM282200 01007KT P6SM OVC040
     FM290100 02004KT P6SM BKN060=



000
FTUS44 KMEG 280500
TAFTUP
TAF
KTUP 280533Z 2806/2906 20005KT P6SM SCT250
     FM281200 21008KT P6SM SCT015
      TEMPO 2812/2816 BKN015
     FM281600 22008KT P6SM BKN040
     FM282200 24008KT P6SM VCTS BKN040CB
      TEMPO 2822/2902 5SM -SHRA BKN030
     FM290200 32005KT 5SM -RA BR VCTS OVC025CB=



000
FTUS44 KMEG 280500
TAFMEM
TAF
KMEM 280533Z 2806/2906 20010KT P6SM SCT250
     FM281200 21010KT P6SM SCT030 BKN050
     FM281400 22008KT P6SM VCSH SCT030 BKN050
     FM281700 24008KT P6SM VCTS SCT020 BKN030CB
      TEMPO 2817/2820 5SM -SHRA BKN020
     FM282000 30008KT 5SM -RA BR VCTS BKN020CB
     FM290000 02006KT P6SM OVC025
      TEMPO 2900/2903 -RA
     FM290300 02006KT P6SM OVC035=



000
FTUS44 KMEG 280300 AAA
TAFMEM
TAF AMD
KMEM 280300Z 2803/2824 19008KT P6SM SCT250
     FM281200 21008KT P6SM BKN050
     FM281500 21008KT P6SM VCSH SCT030 BKN050
     FM281800 24008KT P6SM VCTS BKN030CB
      TEMPO 2818/2821 5SM -SHRA BKN030
     FM282100 30008KT 5SM -RA BR VCTS BKN025CB=



000
FTUS44 KMEG 272300
TAFMKL
TAF
KMKL 272339Z 2800/2824 19006KT P6SM SCT250
     FM281200 21008KT P6SM BKN050
     FM281500 22008KT P6SM VCSH SCT030 BKN050
     FM281800 24008KT P6SM VCTS BKN030CB
      TEMPO 2818/2821 5SM -SHRA BKN030
     FM282100 29008KT 5SM -RA BR VCTS BKN025CB=



000
FTUS44 KMEG 272300
TAFMEM
TAF
KMEM 272339Z 2800/2824 19010KT P6SM SCT250
     FM281200 21008KT P6SM BKN050
     FM281500 21008KT P6SM VCSH SCT030 BKN050
     FM281800 24008KT P6SM VCTS BKN030CB
      TEMPO 2818/2821 5SM -SHRA BKN030
     FM282100 30008KT 5SM -RA BR VCTS BKN025CB=



000
FTUS44 KMEG 272300
TAFTUP
TAF
KTUP 272339Z 2800/2824 20005KT P6SM SCT250
     FM281200 21008KT P6SM SCT015
      TEMPO 2812/2816 BKN015
     FM281600 23008KT P6SM BKN050=



000
FTUS44 KMEG 272300
TAFJBR
TAF
KJBR 272339Z 2800/2824 20008KT P6SM SCT250
     FM280900 21008KT P6SM BKN050
     FM281200 22007KT P6SM VCSH SCT025 BKN050
     FM281500 25007KT P6SM BKN030
      TEMPO 2815/2818 5SM -RA BR
     FM281800 32007KT P6SM BKN025
      TEMPO 2818/2822 5SM -RA BR
     FM282200 01007KT P6SM BKN040=



000
FTUS44 KMEG 272000 AAA
TAFMEM
TAF AMD
KMEM 272056Z 2721/2818 21014G20KT P6SM FEW250
     FM280000 19010KT P6SM SCT250
     FM281400 21008KT P6SM VCSH BKN050
     FM281700 21008KT P6SM VCTS BKN030CB=



000
FTUS44 KMEG 271800 AAA
TAFJBR
TAF AMD
KJBR 271837Z 2719/2818 21019G28KT P6SM SKC
     FM280000 19008KT P6SM SCT250
     FM281200 25006KT P6SM VCSH BKN050
     FM281600 28007KT P6SM -RA BKN030=



000
FTUS44 KMEG 271700
TAFMKL
TAF
KMKL 271740Z 2718/2818 21013G20KT P6SM SCT250
     FM280000 19007KT P6SM SCT250
     FM281500 22008KT P6SM VCSH BKN030=



000
FTUS44 KMEG 271700
TAFTUP
TAF
KTUP 271740Z 2718/2818 22010KT P6SM SKC
     FM280000 20005KT P6SM SCT250
     FM281600 23008KT P6SM BKN030=



000
FTUS44 KMEG 271700
TAFMEM
TAF
KMEM 271740Z 2718/2818 21013G21KT P6SM FEW250
     FM280000 19010KT P6SM SCT250
     FM281400 21008KT P6SM VCSH BKN050
     FM281700 21008KT P6SM VCTS BKN030CB=



000
FTUS44 KMEG 271700
TAFJBR
TAF
KJBR 271740Z 2718/2818 21017G24KT P6SM SKC
     FM280000 19007KT P6SM SCT250
     FM281200 25006KT P6SM VCSH BKN050
     FM281600 28007KT P6SM VCTS BKN030CB=



    US Dept of Commerce
    National Oceanic and Atmospheric Administration
    National Weather Service
    1325 East West Highway
    Silver Spring, MD 20910
    Page Author: NWS Internet Services Team
Disclaimer
Information Quality
Credits
Glossary
Privacy Policy
Freedom of Information Act (FOIA)
About Us
Career Opportunities